createdAt,value
2023-02-28T00:01:34.914Z,39.72
2023-02-28T00:04:03.965Z,39.69
2023-02-28T00:06:32.286Z,39.16
2023-02-28T00:29:22.653Z,40.02
2023-02-28T00:31:51.255Z,40.14
2023-02-28T00:34:19.039Z,40.42
2023-02-28T00:36:51.531Z,40.64
2023-02-28T00:39:19.517Z,40.60
2023-02-28T00:41:47.741Z,40.52
2023-02-28T00:44:15.631Z,40.51
2023-02-28T00:46:43.766Z,40.29
2023-02-28T00:49:11.616Z,40.40
2023-02-28T00:51:39.730Z,40.66
2023-02-28T00:54:07.575Z,39.92
2023-02-28T00:56:35.700Z,40.14
2023-02-28T00:59:03.604Z,40.47
2023-02-28T01:01:32.212Z,40.40
2023-02-28T01:04:00.219Z,40.78
2023-02-28T01:06:28.451Z,40.47
2023-02-28T01:08:56.379Z,40.68
2023-02-28T01:11:24.516Z,40.61
2023-02-28T01:13:54.417Z,41.16
2023-02-28T01:16:22.529Z,40.96
2023-02-28T01:18:50.317Z,40.35
2023-02-28T01:21:21.483Z,40.79
2023-02-28T01:23:49.987Z,40.63
2023-02-28T01:26:23.137Z,40.81
2023-02-28T01:28:53.078Z,40.68
2023-02-28T01:31:23.055Z,41.49
2023-02-28T01:33:51.023Z,41.05
2023-02-28T01:36:21.764Z,41.14
2023-02-28T01:38:50.990Z,41.61
2023-02-28T01:41:24.798Z,41.53
2023-02-28T01:44:08.007Z,41.36
2023-02-28T01:46:37.115Z,41.61
2023-02-28T01:49:16.551Z,41.33
2023-02-28T01:51:52.163Z,41.43
2023-02-28T01:54:33.774Z,41.55
2023-02-28T01:57:08.460Z,41.74
2023-02-28T01:59:46.413Z,41.75
2023-02-28T02:02:16.262Z,41.72
2023-02-28T02:04:56.614Z,41.10
2023-02-28T02:07:26.441Z,41.69
2023-02-28T02:10:08.132Z,41.36
2023-02-28T02:13:11.863Z,41.39
2023-02-28T02:16:18.274Z,41.12
2023-02-28T02:18:54.671Z,40.98
2023-02-28T02:21:59.615Z,41.57
2023-02-28T02:24:48.829Z,41.53
2023-02-28T02:27:25.892Z,40.59
2023-02-28T02:30:22.214Z,40.81
2023-02-28T02:33:11.930Z,41.05
2023-02-28T02:36:02.523Z,40.95
2023-02-28T02:38:38.681Z,40.37
2023-02-28T02:41:14.643Z,40.88
2023-02-28T02:43:48.283Z,40.66
2023-02-28T02:46:40.919Z,40.94
2023-02-28T02:49:13.763Z,41.03
2023-02-28T02:51:43.651Z,40.93
2023-02-28T02:54:18.843Z,40.97
2023-02-28T02:56:49.561Z,40.84
2023-02-28T02:59:22.797Z,40.67
2023-02-28T03:01:59.032Z,41.09
2023-02-28T03:04:32.042Z,40.92
2023-02-28T03:07:02.572Z,40.84
2023-02-28T03:09:30.316Z,40.84
2023-02-28T03:11:58.648Z,40.85
2023-02-28T03:14:29.478Z,40.85
2023-02-28T03:17:25.623Z,40.97
2023-02-28T03:20:09.529Z,41.01
2023-02-28T03:23:03.961Z,40.87
2023-02-28T03:25:40.856Z,41.13
2023-02-28T03:28:29.147Z,40.67
2023-02-28T03:31:13.895Z,40.77
2023-02-28T03:34:37.549Z,41.03
2023-02-28T03:37:11.671Z,40.92
2023-02-28T03:39:49.338Z,40.98
2023-02-28T03:42:23.439Z,40.91
2023-02-28T03:45:10.480Z,40.90
2023-02-28T03:47:48.002Z,41.04
2023-02-28T03:50:23.759Z,41.41
2023-02-28T03:53:02.309Z,41.47
2023-02-28T03:55:39.678Z,41.77
2023-02-28T03:58:29.093Z,42.17
2023-02-28T04:01:12.578Z,41.70
2023-02-28T04:03:40.922Z,41.47
2023-02-28T04:06:17.132Z,41.93
2023-02-28T04:08:45.269Z,42.26
2023-02-28T04:11:27.389Z,42.24
2023-02-28T04:13:55.379Z,42.44
2023-02-28T04:16:34.457Z,42.23
2023-02-28T04:19:07.914Z,42.21
2023-02-28T04:21:48.500Z,41.90
2023-02-28T04:24:22.509Z,41.89
2023-02-28T04:26:54.913Z,42.48
2023-02-28T04:29:31.439Z,41.97
2023-02-28T04:32:01.265Z,41.80
2023-02-28T04:34:31.304Z,42.05
2023-02-28T04:37:17.232Z,42.09
2023-02-28T04:39:45.383Z,42.54
2023-02-28T04:42:14.514Z,42.40
2023-02-28T04:44:42.460Z,42.32
2023-02-28T04:47:10.866Z,42.37
2023-02-28T04:49:39.300Z,42.50
2023-02-28T04:52:08.689Z,42.92
2023-02-28T04:54:36.522Z,42.48
2023-02-28T04:57:05.605Z,42.30
2023-02-28T04:59:34.046Z,42.75
2023-02-28T05:02:07.883Z,42.09
2023-02-28T05:04:36.384Z,42.80
2023-02-28T05:07:04.719Z,42.48
2023-02-28T05:09:34.139Z,42.57
2023-02-28T05:12:02.382Z,42.43
2023-02-28T05:14:30.332Z,42.32
2023-02-28T05:16:58.503Z,42.22
2023-02-28T05:19:26.538Z,42.58
2023-02-28T05:21:55.994Z,42.52
2023-02-28T05:24:24.807Z,42.56
2023-02-28T05:26:54.751Z,42.34
2023-02-28T05:29:23.268Z,42.25
2023-02-28T05:31:51.543Z,42.21
2023-02-28T05:34:19.484Z,42.08
2023-02-28T05:36:47.689Z,41.88
2023-02-28T05:39:15.657Z,41.71
2023-02-28T05:41:44.984Z,41.62
2023-02-28T05:44:13.645Z,41.93
2023-02-28T05:46:41.873Z,41.84
2023-02-28T05:49:09.988Z,41.87
2023-02-28T05:51:41.170Z,41.82
2023-02-28T05:54:09.531Z,42.23
2023-02-28T05:56:40.234Z,41.80
2023-02-28T05:59:08.367Z,42.30
2023-02-28T06:01:49.499Z,42.17
2023-02-28T06:04:30.980Z,42.46
2023-02-28T06:07:00.308Z,42.58
2023-02-28T06:09:28.319Z,41.92
2023-02-28T06:12:05.018Z,42.06
2023-02-28T06:14:34.822Z,41.87
2023-02-28T06:17:04.780Z,42.75
2023-02-28T06:19:33.155Z,42.37
2023-02-28T06:22:01.274Z,42.51
2023-02-28T06:24:29.238Z,42.13
2023-02-28T06:26:57.430Z,42.67
2023-02-28T06:29:25.298Z,42.29
2023-02-28T06:31:53.566Z,41.70
2023-02-28T06:34:21.447Z,42.30
2023-02-28T06:36:52.282Z,42.07
2023-02-28T06:39:20.627Z,41.96
2023-02-28T06:41:55.382Z,41.72
2023-02-28T06:44:24.761Z,42.08
2023-02-28T06:46:53.352Z,41.50
2023-02-28T06:49:21.399Z,41.28
2023-02-28T06:51:49.790Z,41.54
2023-02-28T06:54:17.750Z,41.53
2023-02-28T06:56:46.182Z,40.87
2023-02-28T06:59:14.358Z,41.21
2023-02-28T07:01:42.503Z,41.02
2023-02-28T07:04:10.605Z,40.88
2023-02-28T07:06:38.828Z,40.34
2023-02-28T07:09:07.891Z,40.50
2023-02-28T07:11:36.278Z,40.75
2023-02-28T07:14:04.186Z,40.25
2023-02-28T07:16:32.617Z,40.60
2023-02-28T07:19:00.518Z,40.23
2023-02-28T07:21:29.232Z,40.28
2023-02-28T07:23:58.045Z,40.05
2023-02-28T07:26:26.409Z,40.03
2023-02-28T07:28:54.357Z,39.89
2023-02-28T07:31:22.605Z,39.51
2023-02-28T07:33:50.618Z,39.23
2023-02-28T07:36:22.289Z,39.50
2023-02-28T07:38:51.380Z,40.06
2023-02-28T07:41:22.274Z,39.46
2023-02-28T07:43:50.148Z,39.11
2023-02-28T07:46:19.580Z,39.26
2023-02-28T07:48:47.468Z,38.75
2023-02-28T07:51:15.845Z,38.84
2023-02-28T07:53:43.756Z,38.72
2023-02-28T07:56:11.946Z,38.27
2023-02-28T07:58:39.863Z,38.36
2023-02-28T08:01:09.743Z,37.83
2023-02-28T08:03:38.933Z,37.13
2023-02-28T08:06:09.398Z,37.66
2023-02-28T08:08:37.240Z,37.79
2023-02-28T08:11:05.519Z,38.16
2023-02-28T08:13:33.417Z,37.84
2023-02-28T08:16:03.722Z,37.99
2023-02-28T08:18:31.539Z,38.04
2023-02-28T08:21:00.403Z,36.81
2023-02-28T08:23:28.311Z,36.84
2023-02-28T08:25:57.424Z,36.15
2023-02-28T08:28:27.436Z,36.00
2023-02-28T08:30:56.665Z,35.41
2023-02-28T08:33:25.962Z,35.20
2023-02-28T08:35:57.608Z,34.62
2023-02-28T08:38:25.887Z,34.80
2023-02-28T08:41:02.757Z,34.47
2023-02-28T08:43:30.736Z,34.48
2023-02-28T08:45:58.942Z,34.25
2023-02-28T08:48:28.601Z,34.19
2023-02-28T08:51:06.720Z,34.06
2023-02-28T08:53:37.011Z,34.30
2023-02-28T08:56:13.339Z,33.68
2023-02-28T08:58:41.835Z,33.19
2023-02-28T09:01:15.106Z,33.05
2023-02-28T09:03:43.977Z,33.81
2023-02-28T09:06:12.715Z,33.63
2023-02-28T09:08:40.815Z,33.31
2023-02-28T09:11:10.709Z,32.76
2023-02-28T09:13:39.201Z,32.15
2023-02-28T09:16:11.579Z,32.99
2023-02-28T09:18:40.744Z,32.69
2023-02-28T09:21:15.627Z,32.56
2023-02-28T09:23:46.131Z,32.83
2023-02-28T09:26:19.191Z,32.53
2023-02-28T09:28:47.936Z,31.60
2023-02-28T09:31:22.133Z,31.85
2023-02-28T09:33:50.969Z,32.66
2023-02-28T09:36:19.896Z,32.31
2023-02-28T09:38:48.947Z,31.48
2023-02-28T09:41:24.707Z,31.13
2023-02-28T09:43:59.880Z,30.19
2023-02-28T09:46:42.073Z,30.22
2023-02-28T09:49:25.040Z,30.78
2023-02-28T09:52:03.643Z,30.08
2023-02-28T09:54:33.728Z,29.23
2023-02-28T09:57:07.762Z,29.40
2023-02-28T09:59:41.329Z,29.23
2023-02-28T10:03:11.118Z,28.95
2023-02-28T10:05:52.392Z,29.25
2023-02-28T10:09:10.475Z,30.35
2023-02-28T10:11:41.029Z,29.93
2023-02-28T10:14:22.950Z,29.06
2023-02-28T10:16:59.363Z,28.85
2023-02-28T10:19:50.966Z,28.94
2023-02-28T10:22:23.562Z,28.97
2023-02-28T10:24:54.304Z,29.61
2023-02-28T10:27:30.105Z,29.13
2023-02-28T10:30:03.156Z,28.86
2023-02-28T10:32:35.093Z,28.77
2023-02-28T10:35:12.749Z,28.96
2023-02-28T10:37:42.583Z,29.14
2023-02-28T10:40:36.834Z,28.71
2023-02-28T10:43:18.051Z,29.21
2023-02-28T10:45:59.982Z,28.91
2023-02-28T10:48:35.509Z,27.97
2023-02-28T10:51:06.014Z,28.03
2023-02-28T10:53:59.228Z,27.51
2023-02-28T10:56:31.077Z,26.87
2023-02-28T10:59:31.468Z,26.76
2023-02-28T11:02:00.319Z,26.24
2023-02-28T11:04:33.881Z,27.05
2023-02-28T11:07:08.108Z,26.64
2023-02-28T11:09:43.754Z,26.33
2023-02-28T11:12:47.098Z,26.17
2023-02-28T11:15:27.445Z,25.86
2023-02-28T11:18:00.434Z,25.53
2023-02-28T11:20:31.916Z,25.95
2023-02-28T11:23:04.172Z,25.28
2023-02-28T11:25:40.155Z,25.50
2023-02-28T11:28:27.409Z,26.37
2023-02-28T11:31:03.269Z,25.72
2023-02-28T11:33:32.740Z,26.09
2023-02-28T11:36:06.096Z,25.44
2023-02-28T11:38:36.080Z,25.20
2023-02-28T11:41:10.752Z,25.53
2023-02-28T11:43:54.056Z,24.72
2023-02-28T11:46:28.963Z,24.79
2023-02-28T11:49:06.450Z,24.33
2023-02-28T11:51:55.129Z,24.23
2023-02-28T11:54:29.602Z,24.31
2023-02-28T11:57:15.586Z,24.07
2023-02-28T11:59:55.783Z,24.08
2023-02-28T12:02:48.555Z,24.55
2023-02-28T12:05:47.137Z,24.37
2023-02-28T12:08:24.804Z,25.26
2023-02-28T12:11:16.211Z,24.88
2023-02-28T12:14:25.670Z,25.06
2023-02-28T12:17:13.396Z,25.50
2023-02-28T12:19:59.627Z,24.78
2023-02-28T12:22:55.578Z,25.64
2023-02-28T12:25:53.870Z,24.49
2023-02-28T12:28:28.456Z,24.24
2023-02-28T12:31:39.781Z,24.21
2023-02-28T12:34:14.673Z,24.31
2023-02-28T12:36:46.415Z,24.27
2023-02-28T12:39:31.206Z,25.40
2023-02-28T12:42:09.324Z,24.73
2023-02-28T12:44:54.064Z,25.97
2023-02-28T12:47:22.313Z,25.47
2023-02-28T12:49:55.796Z,27.51
2023-02-28T12:52:54.903Z,25.46
2023-02-28T12:55:54.191Z,24.73
2023-02-28T12:58:31.162Z,24.28
2023-02-28T13:01:05.038Z,24.07
2023-02-28T13:03:54.195Z,24.71
2023-02-28T13:06:53.416Z,24.30
2023-02-28T13:09:22.600Z,23.53
2023-02-28T13:11:53.577Z,23.78
2023-02-28T13:14:26.165Z,24.56
2023-02-28T13:17:11.043Z,24.25
2023-02-28T13:19:54.054Z,24.16
2023-02-28T13:22:40.763Z,24.00
2023-02-28T13:25:23.581Z,24.58
2023-02-28T13:27:57.819Z,23.76
2023-02-28T13:30:56.969Z,23.61
2023-02-28T13:33:28.731Z,24.84
2023-02-28T13:36:15.525Z,24.12
2023-02-28T13:38:46.594Z,23.74
2023-02-28T13:41:33.002Z,23.61
2023-02-28T13:44:27.964Z,23.89
2023-02-28T13:46:57.085Z,23.86
2023-02-28T13:49:32.924Z,24.77
2023-02-28T13:52:17.687Z,23.95
2023-02-28T13:55:21.320Z,23.70
2023-02-28T13:57:58.475Z,23.45
2023-02-28T14:01:01.074Z,24.33
2023-02-28T14:03:34.710Z,24.65
2023-02-28T14:06:31.672Z,25.54
2023-02-28T14:09:16.646Z,24.66
2023-02-28T14:11:47.677Z,23.46
2023-02-28T14:14:37.641Z,23.66
2023-02-28T14:17:10.836Z,23.90
2023-02-28T14:19:40.244Z,23.84
2023-02-28T14:22:20.805Z,25.92
2023-02-28T14:25:16.459Z,24.74
2023-02-28T14:27:48.203Z,25.58
2023-02-28T14:30:33.151Z,25.54
2023-02-28T14:33:49.906Z,25.28
2023-02-28T14:36:47.191Z,26.13
2023-02-28T14:39:18.068Z,27.00
2023-02-28T14:41:47.328Z,25.70
2023-02-28T14:44:25.866Z,25.71
2023-02-28T14:46:56.327Z,26.08
2023-02-28T14:49:33.786Z,25.52
2023-02-28T14:52:08.071Z,25.75
2023-02-28T14:54:37.657Z,25.87
2023-02-28T14:57:06.414Z,26.51
2023-02-28T14:59:37.256Z,26.04
2023-02-28T15:02:21.709Z,25.50
2023-02-28T15:04:55.894Z,24.73
2023-02-28T15:07:29.705Z,24.37
2023-02-28T15:10:21.197Z,24.46
2023-02-28T15:13:07.451Z,22.93
2023-02-28T15:16:04.065Z,21.67
2023-02-28T15:18:38.214Z,20.49
2023-02-28T15:21:12.591Z,20.94
2023-02-28T15:23:44.300Z,19.60
2023-02-28T15:26:18.176Z,19.27
2023-02-28T15:28:46.852Z,18.87
2023-02-28T15:31:36.172Z,19.13
2023-02-28T15:34:17.311Z,18.67
2023-02-28T15:36:45.602Z,19.74
2023-02-28T15:39:26.173Z,19.70
2023-02-28T15:42:12.831Z,20.25
2023-02-28T15:44:40.954Z,20.73
2023-02-28T15:47:27.722Z,19.92
2023-02-28T15:50:00.057Z,22.66
2023-02-28T15:52:42.092Z,24.41
2023-02-28T15:55:22.394Z,25.46
2023-02-28T15:57:59.975Z,26.40
2023-02-28T16:00:30.457Z,26.83
2023-02-28T16:02:58.974Z,26.72
2023-02-28T16:05:33.150Z,27.04
2023-02-28T16:08:16.734Z,26.71
2023-02-28T16:10:44.855Z,26.09
2023-02-28T16:13:16.682Z,26.50
2023-02-28T16:15:45.198Z,27.53
2023-02-28T16:18:14.465Z,29.00
2023-02-28T16:20:42.762Z,29.20
2023-02-28T16:23:11.140Z,30.08
2023-02-28T16:25:42.141Z,30.18
2023-02-28T16:28:19.869Z,30.78
2023-02-28T16:30:48.181Z,31.43
2023-02-28T16:33:16.428Z,31.52
2023-02-28T16:35:44.533Z,31.76
2023-02-28T16:38:12.945Z,32.06
2023-02-28T16:40:41.237Z,32.15
2023-02-28T16:43:17.943Z,32.41
2023-02-28T16:45:46.879Z,32.66
2023-02-28T16:48:17.345Z,32.52
2023-02-28T16:50:45.817Z,32.85
2023-02-28T16:53:15.014Z,32.92
2023-02-28T16:55:43.091Z,32.99
2023-02-28T16:58:17.342Z,33.44
2023-02-28T17:00:45.438Z,33.44
2023-02-28T17:03:33.666Z,34.06
2023-02-28T17:06:02.491Z,34.03
2023-02-28T17:08:33.516Z,33.84
2023-02-28T17:11:02.802Z,34.06
2023-02-28T17:13:31.117Z,34.38
2023-02-28T17:15:59.175Z,34.75
2023-02-28T17:18:30.238Z,34.91
2023-02-28T17:20:58.290Z,35.53
2023-02-28T17:23:26.742Z,35.93
2023-02-28T17:25:57.529Z,36.52
2023-02-28T17:28:26.389Z,36.23
2023-02-28T17:30:54.399Z,39.07
2023-02-28T17:33:22.876Z,39.59
2023-02-28T17:35:50.877Z,39.43
2023-02-28T17:38:20.838Z,40.80
2023-02-28T17:40:48.825Z,41.88
2023-02-28T17:43:17.251Z,42.34
2023-02-28T17:45:45.190Z,43.70
2023-02-28T17:48:14.038Z,42.99
2023-02-28T17:50:42.073Z,42.80
2023-02-28T17:53:10.438Z,43.11
2023-02-28T17:55:38.773Z,43.57
2023-02-28T17:58:07.555Z,43.34
2023-02-28T18:00:35.601Z,43.20
2023-02-28T18:03:04.905Z,43.24
2023-02-28T18:05:33.599Z,42.97
2023-02-28T18:08:02.013Z,43.79
2023-02-28T18:10:34.398Z,44.13
2023-02-28T18:13:04.887Z,44.11
2023-02-28T18:15:32.875Z,44.54
2023-02-28T18:18:01.370Z,44.85
2023-02-28T18:20:29.501Z,44.78
2023-02-28T18:22:58.096Z,44.47
2023-02-28T18:25:26.374Z,44.56
2023-02-28T18:27:58.345Z,44.31
2023-02-28T18:30:33.049Z,44.23
2023-02-28T18:33:02.514Z,44.49
2023-02-28T18:35:37.670Z,44.76
2023-02-28T18:38:11.380Z,44.73
2023-02-28T18:40:39.498Z,44.37
2023-02-28T18:43:08.266Z,44.86
2023-02-28T18:45:38.737Z,45.36
2023-02-28T18:48:07.410Z,45.89
2023-02-28T18:50:39.080Z,47.03
2023-02-28T18:53:07.412Z,47.33
2023-02-28T18:55:35.441Z,47.22
2023-02-28T18:58:04.483Z,47.28
2023-02-28T19:00:32.774Z,47.82
2023-02-28T19:03:01.158Z,47.88
2023-02-28T19:05:33.194Z,47.80
2023-02-28T19:08:02.346Z,48.17
2023-02-28T19:10:30.726Z,47.88
2023-02-28T19:12:59.193Z,47.86
2023-02-28T19:15:27.145Z,47.25
2023-02-28T19:17:55.531Z,47.96
2023-02-28T19:20:24.781Z,48.04
2023-02-28T19:22:52.975Z,48.05
2023-02-28T19:25:20.912Z,47.92
2023-02-28T19:27:53.814Z,48.30
2023-02-28T19:30:21.952Z,48.36
2023-02-28T19:32:50.576Z,47.76
2023-02-28T19:35:19.260Z,48.27
2023-02-28T19:37:47.683Z,48.13
2023-02-28T19:40:15.704Z,48.40
2023-02-28T19:42:44.494Z,48.58
2023-02-28T19:45:15.043Z,48.71
2023-02-28T19:47:43.437Z,48.93
2023-02-28T19:50:12.373Z,48.95
2023-02-28T19:55:10.184Z,48.96
2023-02-28T19:57:38.753Z,49.16
2023-02-28T20:00:09.465Z,49.11
2023-02-28T20:02:43.999Z,48.98
2023-02-28T20:05:12.063Z,49.36
2023-02-28T20:07:40.335Z,48.88
2023-02-28T20:10:08.763Z,49.61
2023-02-28T20:12:37.043Z,49.91
2023-02-28T20:15:05.500Z,49.68
2023-02-28T20:17:33.821Z,50.16
2023-02-28T20:20:01.932Z,49.58
2023-02-28T20:22:30.511Z,49.83
2023-02-28T20:24:58.401Z,50.44
2023-02-28T20:27:27.121Z,50.41
2023-02-28T20:29:55.119Z,50.48
2023-02-28T20:32:23.526Z,50.26
2023-02-28T20:34:52.528Z,50.13
2023-02-28T20:37:20.992Z,50.52
2023-02-28T20:39:53.188Z,50.41
2023-02-28T20:42:22.395Z,50.32
2023-02-28T20:44:50.488Z,51.04
2023-02-28T20:47:18.887Z,50.66
2023-02-28T20:49:47.240Z,50.77
2023-02-28T20:52:15.918Z,51.67
2023-02-28T20:54:44.557Z,51.00
2023-02-28T20:57:13.752Z,51.57
2023-02-28T20:59:42.245Z,51.58
2023-02-28T21:02:16.319Z,51.42
2023-02-28T21:04:44.460Z,52.10
2023-02-28T21:07:14.203Z,52.56
2023-02-28T21:09:42.332Z,52.56
2023-02-28T21:12:10.791Z,51.98
2023-02-28T21:14:38.821Z,51.02
2023-02-28T21:17:10.550Z,49.76
2023-02-28T21:19:38.582Z,49.33
2023-02-28T21:22:07.051Z,49.09
2023-02-28T21:24:35.143Z,48.94
2023-02-28T21:27:03.618Z,48.65
2023-02-28T21:29:32.907Z,48.45
2023-02-28T21:32:02.225Z,48.22
2023-02-28T21:34:30.319Z,48.90
2023-02-28T21:36:58.683Z,48.42
2023-02-28T21:39:30.278Z,48.01
2023-02-28T21:42:04.104Z,47.77
2023-02-28T21:44:34.793Z,48.24
2023-02-28T21:47:03.391Z,48.05
2023-02-28T21:49:31.709Z,47.72
2023-02-28T21:52:00.204Z,47.67
2023-02-28T21:54:28.148Z,48.15
2023-02-28T21:56:56.422Z,48.18
2023-02-28T21:59:24.306Z,48.59
2023-02-28T22:01:52.597Z,47.78
2023-02-28T22:04:23.525Z,48.58
2023-02-28T22:06:59.112Z,49.00
2023-02-28T22:09:27.480Z,48.11
2023-02-28T22:11:56.961Z,47.40
2023-02-28T22:14:25.371Z,47.83
2023-02-28T22:16:55.347Z,47.36
2023-02-28T22:19:24.152Z,47.46
2023-02-28T22:21:54.187Z,47.50
2023-02-28T22:24:24.899Z,47.49
2023-02-28T22:26:53.822Z,47.55
2023-02-28T22:29:22.269Z,47.90
2023-02-28T22:31:50.766Z,48.55
2023-02-28T22:34:20.106Z,48.89
2023-02-28T22:36:48.380Z,48.60
2023-02-28T22:39:16.347Z,48.66
2023-02-28T22:41:44.788Z,48.65
2023-02-28T22:44:12.800Z,47.91
2023-02-28T22:46:41.010Z,46.99
2023-02-28T22:49:08.952Z,46.44
2023-02-28T22:51:37.206Z,45.58
2023-02-28T22:54:05.206Z,44.54
2023-02-28T22:56:33.760Z,44.32
2023-02-28T22:59:02.528Z,43.68
2023-02-28T23:01:33.247Z,43.06
2023-02-28T23:04:01.471Z,43.01
2023-02-28T23:06:31.615Z,42.86
2023-02-28T23:09:03.821Z,42.41
2023-02-28T23:11:35.729Z,42.31
2023-02-28T23:14:03.853Z,42.28
2023-02-28T23:16:49.907Z,42.08
2023-02-28T23:19:26.849Z,42.05
2023-02-28T23:21:55.049Z,42.11
2023-02-28T23:24:25.490Z,42.29
2023-02-28T23:26:56.201Z,41.72
2023-02-28T23:29:25.763Z,43.25
2023-02-28T23:31:54.568Z,43.98
2023-02-28T23:34:30.825Z,44.22
2023-02-28T23:37:01.125Z,45.16
2023-02-28T23:39:30.576Z,45.92
2023-02-28T23:41:59.430Z,46.33
2023-02-28T23:44:27.412Z,45.86
2023-02-28T23:46:55.888Z,45.89
2023-02-28T23:49:23.812Z,45.35
2023-02-28T23:51:54.276Z,44.39
2023-02-28T23:54:22.517Z,44.72
2023-02-28T23:56:50.987Z,44.75
2023-02-28T23:59:19.561Z,44.72
